sensor_id;sensor_type;location;lat;lon;timestamp;temperature;humidity
25945;SHT31;13742;49.306;8.636;2024-02-16T00:01:00;12.27;78.38
25945;SHT31;13742;49.306;8.636;2024-02-16T00:02:00;12.27;78.36
25945;SHT31;13742;49.306;8.636;2024-02-16T00:02:59;12.27;78.32
25945;SHT31;13742;49.306;8.636;2024-02-16T00:03:59;12.24;78.51
25945;SHT31;13742;49.306;8.636;2024-02-16T00:04:59;12.24;78.48
25945;SHT31;13742;49.306;8.636;2024-02-16T00:05:59;12.25;78.53
25945;SHT31;13742;49.306;8.636;2024-02-16T00:06:59;12.25;78.42
25945;SHT31;13742;49.306;8.636;2024-02-16T00:07:59;12.25;78.37
25945;SHT31;13742;49.306;8.636;2024-02-16T00:08:59;12.24;78.56
25945;SHT31;13742;49.306;8.636;2024-02-16T00:09:59;12.24;78.63
25945;SHT31;13742;49.306;8.636;2024-02-16T00:10:59;12.24;78.60
25945;SHT31;13742;49.306;8.636;2024-02-16T00:11:59;12.22;78.45
25945;SHT31;13742;49.306;8.636;2024-02-16T00:12:59;12.21;78.46
25945;SHT31;13742;49.306;8.636;2024-02-16T00:13:59;12.21;78.65
25945;SHT31;13742;49.306;8.636;2024-02-16T00:14:59;12.24;78.78
25945;SHT31;13742;49.306;8.636;2024-02-16T00:15:59;12.18;78.62
25945;SHT31;13742;49.306;8.636;2024-02-16T00:16:59;12.21;78.70
25945;SHT31;13742;49.306;8.636;2024-02-16T00:17:59;12.22;78.73
25945;SHT31;13742;49.306;8.636;2024-02-16T00:18:59;12.20;78.60
25945;SHT31;13742;49.306;8.636;2024-02-16T00:19:59;12.22;78.72
25945;SHT31;13742;49.306;8.636;2024-02-16T00:20:59;12.22;78.66
25945;SHT31;13742;49.306;8.636;2024-02-16T00:22:00;12.21;78.65
25945;SHT31;13742;49.306;8.636;2024-02-16T00:23:00;12.18;78.57
25945;SHT31;13742;49.306;8.636;2024-02-16T00:23:59;12.20;78.55
25945;SHT31;13742;49.306;8.636;2024-02-16T00:24:59;12.18;78.52
25945;SHT31;13742;49.306;8.636;2024-02-16T00:25:59;12.17;78.56
25945;SHT31;13742;49.306;8.636;2024-02-16T00:26:59;12.17;78.56
25945;SHT31;13742;49.306;8.636;2024-02-16T00:27:59;12.14;78.58
25945;SHT31;13742;49.306;8.636;2024-02-16T00:28:59;12.15;78.60
25945;SHT31;13742;49.306;8.636;2024-02-16T00:29:59;12.15;78.68
25945;SHT31;13742;49.306;8.636;2024-02-16T00:30:59;12.17;78.97
25945;SHT31;13742;49.306;8.636;2024-02-16T00:32:02;12.17;78.95
25945;SHT31;13742;49.306;8.636;2024-02-16T00:33:01;12.17;79.05
25945;SHT31;13742;49.306;8.636;2024-02-16T00:33:59;12.15;78.89
25945;SHT31;13742;49.306;8.636;2024-02-16T00:34:59;12.14;78.95
25945;SHT31;13742;49.306;8.636;2024-02-16T00:35:59;12.15;78.71
25945;SHT31;13742;49.306;8.636;2024-02-16T00:36:59;12.12;78.94
25945;SHT31;13742;49.306;8.636;2024-02-16T00:37:59;12.14;79.04
25945;SHT31;13742;49.306;8.636;2024-02-16T00:38:59;12.14;78.88
25945;SHT31;13742;49.306;8.636;2024-02-16T00:39:59;12.14;78.87
25945;SHT31;13742;49.306;8.636;2024-02-16T00:40:59;12.15;78.95
25945;SHT31;13742;49.306;8.636;2024-02-16T00:41:59;12.14;78.96
25945;SHT31;13742;49.306;8.636;2024-02-16T00:42:59;12.12;78.84
25945;SHT31;13742;49.306;8.636;2024-02-16T00:43:59;12.09;78.86
25945;SHT31;13742;49.306;8.636;2024-02-16T00:45:01;12.11;78.85
25945;SHT31;13742;49.306;8.636;2024-02-16T00:45:59;12.09;78.87
25945;SHT31;13742;49.306;8.636;2024-02-16T00:46:59;12.08;78.84
25945;SHT31;13742;49.306;8.636;2024-02-16T00:47:59;12.08;78.87
25945;SHT31;13742;49.306;8.636;2024-02-16T00:48:59;12.08;78.84
25945;SHT31;13742;49.306;8.636;2024-02-16T00:49:59;12.08;78.97
25945;SHT31;13742;49.306;8.636;2024-02-16T00:50:59;12.06;79.08
25945;SHT31;13742;49.306;8.636;2024-02-16T00:51:59;12.08;78.88
25945;SHT31;13742;49.306;8.636;2024-02-16T00:53:00;12.05;78.84
25945;SHT31;13742;49.306;8.636;2024-02-16T00:53:59;12.06;79.04
25945;SHT31;13742;49.306;8.636;2024-02-16T00:54:59;12.04;78.90
25945;SHT31;13742;49.306;8.636;2024-02-16T00:55:59;12.01;78.95
25945;SHT31;13742;49.306;8.636;2024-02-16T00:57:02;12.02;78.89
25945;SHT31;13742;49.306;8.636;2024-02-16T00:57:59;12.00;79.14
25945;SHT31;13742;49.306;8.636;2024-02-16T00:58:59;12.01;78.90
25945;SHT31;13742;49.306;8.636;2024-02-16T00:59:59;12.00;78.94
25945;SHT31;13742;49.306;8.636;2024-02-16T01:00:59;12.00;79.17
25945;SHT31;13742;49.306;8.636;2024-02-16T01:01:59;11.97;79.09
25945;SHT31;13742;49.306;8.636;2024-02-16T01:02:59;11.98;79.22
25945;SHT31;13742;49.306;8.636;2024-02-16T01:03:59;11.97;79.21
25945;SHT31;13742;49.306;8.636;2024-02-16T01:05:02;11.95;79.27
25945;SHT31;13742;49.306;8.636;2024-02-16T01:05:59;11.95;79.54
25945;SHT31;13742;49.306;8.636;2024-02-16T01:06:59;11.94;79.65
25945;SHT31;13742;49.306;8.636;2024-02-16T01:07:59;11.94;79.56
25945;SHT31;13742;49.306;8.636;2024-02-16T01:08:59;11.95;79.52
25945;SHT31;13742;49.306;8.636;2024-02-16T01:10:00;11.95;79.45
25945;SHT31;13742;49.306;8.636;2024-02-16T01:10:59;11.94;79.59
25945;SHT31;13742;49.306;8.636;2024-02-16T01:11:59;11.94;79.67
25945;SHT31;13742;49.306;8.636;2024-02-16T01:12:59;11.92;79.61
25945;SHT31;13742;49.306;8.636;2024-02-16T01:13:59;11.90;79.63
25945;SHT31;13742;49.306;8.636;2024-02-16T01:15:00;11.94;79.68
25945;SHT31;13742;49.306;8.636;2024-02-16T01:15:59;11.90;79.77
25945;SHT31;13742;49.306;8.636;2024-02-16T01:16:59;11.88;79.77
25945;SHT31;13742;49.306;8.636;2024-02-16T01:18:00;11.88;79.89
25945;SHT31;13742;49.306;8.636;2024-02-16T01:18:59;11.88;79.94
25945;SHT31;13742;49.306;8.636;2024-02-16T01:19:59;11.90;79.76
25945;SHT31;13742;49.306;8.636;2024-02-16T01:20:59;11.88;79.97
25945;SHT31;13742;49.306;8.636;2024-02-16T01:22:00;11.90;79.99
25945;SHT31;13742;49.306;8.636;2024-02-16T01:22:59;11.87;79.91
25945;SHT31;13742;49.306;8.636;2024-02-16T01:24:01;11.87;79.85
25945;SHT31;13742;49.306;8.636;2024-02-16T01:24:59;11.84;79.97
25945;SHT31;13742;49.306;8.636;2024-02-16T01:25:59;11.84;79.79
25945;SHT31;13742;49.306;8.636;2024-02-16T01:26:59;11.81;79.90
25945;SHT31;13742;49.306;8.636;2024-02-16T01:27:59;11.81;79.99
25945;SHT31;13742;49.306;8.636;2024-02-16T01:28:59;11.81;79.95
25945;SHT31;13742;49.306;8.636;2024-02-16T01:29:59;11.80;80.14
25945;SHT31;13742;49.306;8.636;2024-02-16T01:30:59;11.81;80.19
25945;SHT31;13742;49.306;8.636;2024-02-16T01:31:59;11.80;80.13
25945;SHT31;13742;49.306;8.636;2024-02-16T01:32:59;11.77;80.18
25945;SHT31;13742;49.306;8.636;2024-02-16T01:33:59;11.80;80.09
25945;SHT31;13742;49.306;8.636;2024-02-16T01:34:59;11.76;80.04
25945;SHT31;13742;49.306;8.636;2024-02-16T01:35:59;11.74;80.18
25945;SHT31;13742;49.306;8.636;2024-02-16T01:36:59;11.76;80.09
25945;SHT31;13742;49.306;8.636;2024-02-16T01:37:59;11.74;80.18
25945;SHT31;13742;49.306;8.636;2024-02-16T01:38:59;11.74;80.24
25945;SHT31;13742;49.306;8.636;2024-02-16T01:39:59;11.76;80.33
25945;SHT31;13742;49.306;8.636;2024-02-16T01:40:59;11.74;80.26
25945;SHT31;13742;49.306;8.636;2024-02-16T01:41:59;11.74;80.20
25945;SHT31;13742;49.306;8.636;2024-02-16T01:42:59;11.70;80.18
25945;SHT31;13742;49.306;8.636;2024-02-16T01:43:59;11.74;80.19
25945;SHT31;13742;49.306;8.636;2024-02-16T01:44:59;11.71;80.26
25945;SHT31;13742;49.306;8.636;2024-02-16T01:46:00;11.70;80.25
25945;SHT31;13742;49.306;8.636;2024-02-16T01:46:59;11.71;80.36
25945;SHT31;13742;49.306;8.636;2024-02-16T01:47:59;11.71;80.28
25945;SHT31;13742;49.306;8.636;2024-02-16T01:48:59;11.71;80.29
25945;SHT31;13742;49.306;8.636;2024-02-16T01:49:59;11.73;80.25
25945;SHT31;13742;49.306;8.636;2024-02-16T01:50:59;11.71;80.17
25945;SHT31;13742;49.306;8.636;2024-02-16T01:51:59;11.70;80.21
25945;SHT31;13742;49.306;8.636;2024-02-16T01:52:59;11.71;80.11
25945;SHT31;13742;49.306;8.636;2024-02-16T01:54:01;11.71;80.15
25945;SHT31;13742;49.306;8.636;2024-02-16T01:54:59;11.73;80.11
25945;SHT31;13742;49.306;8.636;2024-02-16T01:55:59;11.71;80.03
25945;SHT31;13742;49.306;8.636;2024-02-16T01:57:00;11.69;80.06
25945;SHT31;13742;49.306;8.636;2024-02-16T01:57:59;11.71;80.00
25945;SHT31;13742;49.306;8.636;2024-02-16T01:58:59;11.71;80.19
25945;SHT31;13742;49.306;8.636;2024-02-16T01:59:59;11.70;80.13
25945;SHT31;13742;49.306;8.636;2024-02-16T02:00:59;11.71;80.08
25945;SHT31;13742;49.306;8.636;2024-02-16T02:01:59;11.70;79.92
25945;SHT31;13742;49.306;8.636;2024-02-16T02:02:59;11.71;80.16
25945;SHT31;13742;49.306;8.636;2024-02-16T02:03:59;11.70;79.96
25945;SHT31;13742;49.306;8.636;2024-02-16T02:04:59;11.69;79.91
25945;SHT31;13742;49.306;8.636;2024-02-16T02:05:59;11.70;79.94
25945;SHT31;13742;49.306;8.636;2024-02-16T02:06:59;11.73;80.07
25945;SHT31;13742;49.306;8.636;2024-02-16T02:08:09;11.71;80.00
25945;SHT31;13742;49.306;8.636;2024-02-16T02:08:59;11.69;79.92
25945;SHT31;13742;49.306;8.636;2024-02-16T02:09:59;11.70;79.99
25945;SHT31;13742;49.306;8.636;2024-02-16T02:10:59;11.71;79.94
25945;SHT31;13742;49.306;8.636;2024-02-16T02:11:59;11.71;79.89
25945;SHT31;13742;49.306;8.636;2024-02-16T02:12:59;11.69;79.90
25945;SHT31;13742;49.306;8.636;2024-02-16T02:13:59;11.69;79.94
25945;SHT31;13742;49.306;8.636;2024-02-16T02:14:59;11.69;80.05
25945;SHT31;13742;49.306;8.636;2024-02-16T02:16:00;11.69;79.88
25945;SHT31;13742;49.306;8.636;2024-02-16T02:16:59;11.67;79.89
25945;SHT31;13742;49.306;8.636;2024-02-16T02:17:59;11.69;80.28
25945;SHT31;13742;49.306;8.636;2024-02-16T02:18:59;11.69;80.15
25945;SHT31;13742;49.306;8.636;2024-02-16T02:19:59;11.67;80.02
25945;SHT31;13742;49.306;8.636;2024-02-16T02:20:59;11.69;79.97
25945;SHT31;13742;49.306;8.636;2024-02-16T02:21:59;11.71;80.23
25945;SHT31;13742;49.306;8.636;2024-02-16T02:22:59;11.70;80.47
25945;SHT31;13742;49.306;8.636;2024-02-16T02:23:59;11.69;80.16
25945;SHT31;13742;49.306;8.636;2024-02-16T02:24:59;11.69;80.12
25945;SHT31;13742;49.306;8.636;2024-02-16T02:25:59;11.67;80.07
25945;SHT31;13742;49.306;8.636;2024-02-16T02:26:59;11.67;80.00
25945;SHT31;13742;49.306;8.636;2024-02-16T02:27:59;11.66;79.99
25945;SHT31;13742;49.306;8.636;2024-02-16T02:28:59;11.66;80.01
25945;SHT31;13742;49.306;8.636;2024-02-16T02:29:59;11.66;79.95
25945;SHT31;13742;49.306;8.636;2024-02-16T02:30:59;11.64;79.98
25945;SHT31;13742;49.306;8.636;2024-02-16T02:31:59;11.64;79.99
25945;SHT31;13742;49.306;8.636;2024-02-16T02:32:59;11.66;80.08
25945;SHT31;13742;49.306;8.636;2024-02-16T02:33:59;11.64;80.16
25945;SHT31;13742;49.306;8.636;2024-02-16T02:34:59;11.66;80.20
25945;SHT31;13742;49.306;8.636;2024-02-16T02:35:59;11.61;80.23
25945;SHT31;13742;49.306;8.636;2024-02-16T02:36:59;11.61;80.22
25945;SHT31;13742;49.306;8.636;2024-02-16T02:37:59;11.63;80.33
25945;SHT31;13742;49.306;8.636;2024-02-16T02:38:59;11.61;80.36
25945;SHT31;13742;49.306;8.636;2024-02-16T02:39:59;11.63;80.28
25945;SHT31;13742;49.306;8.636;2024-02-16T02:40:59;11.60;80.22
25945;SHT31;13742;49.306;8.636;2024-02-16T02:41:59;11.59;80.25
25945;SHT31;13742;49.306;8.636;2024-02-16T02:42:59;11.61;80.23
25945;SHT31;13742;49.306;8.636;2024-02-16T02:43:59;11.60;80.29
25945;SHT31;13742;49.306;8.636;2024-02-16T02:44:59;11.59;80.26
25945;SHT31;13742;49.306;8.636;2024-02-16T02:45:59;11.59;80.30
25945;SHT31;13742;49.306;8.636;2024-02-16T02:46:59;11.59;80.28
25945;SHT31;13742;49.306;8.636;2024-02-16T02:47:59;11.59;80.51
25945;SHT31;13742;49.306;8.636;2024-02-16T02:48:59;11.56;80.46
25945;SHT31;13742;49.306;8.636;2024-02-16T02:49:59;11.56;80.37
25945;SHT31;13742;49.306;8.636;2024-02-16T02:51:00;11.53;80.26
25945;SHT31;13742;49.306;8.636;2024-02-16T02:51:59;11.54;80.34
25945;SHT31;13742;49.306;8.636;2024-02-16T02:52:59;11.52;80.32
25945;SHT31;13742;49.306;8.636;2024-02-16T02:53:59;11.53;80.42
25945;SHT31;13742;49.306;8.636;2024-02-16T02:54:59;11.52;80.47
25945;SHT31;13742;49.306;8.636;2024-02-16T02:55:59;11.53;80.68
25945;SHT31;13742;49.306;8.636;2024-02-16T02:56:59;11.52;80.74
25945;SHT31;13742;49.306;8.636;2024-02-16T02:57:59;11.52;80.52
25945;SHT31;13742;49.306;8.636;2024-02-16T02:58:59;11.50;80.58
25945;SHT31;13742;49.306;8.636;2024-02-16T03:00:07;11.52;80.44
25945;SHT31;13742;49.306;8.636;2024-02-16T03:00:59;11.50;80.76
25945;SHT31;13742;49.306;8.636;2024-02-16T03:01:59;11.52;80.60
25945;SHT31;13742;49.306;8.636;2024-02-16T03:02:59;11.49;80.43
25945;SHT31;13742;49.306;8.636;2024-02-16T03:04:00;11.50;80.62
25945;SHT31;13742;49.306;8.636;2024-02-16T03:04:59;11.49;80.47
25945;SHT31;13742;49.306;8.636;2024-02-16T03:05:59;11.53;80.64
25945;SHT31;13742;49.306;8.636;2024-02-16T03:06:59;11.53;80.76
25945;SHT31;13742;49.306;8.636;2024-02-16T03:08:01;11.52;80.61
25945;SHT31;13742;49.306;8.636;2024-02-16T03:08:59;11.52;80.59
25945;SHT31;13742;49.306;8.636;2024-02-16T03:09:59;11.50;80.59
25945;SHT31;13742;49.306;8.636;2024-02-16T03:11:00;11.50;80.48
25945;SHT31;13742;49.306;8.636;2024-02-16T03:11:59;11.46;80.57
25945;SHT31;13742;49.306;8.636;2024-02-16T03:12:59;11.47;80.54
25945;SHT31;13742;49.306;8.636;2024-02-16T03:13:59;11.49;80.64
25945;SHT31;13742;49.306;8.636;2024-02-16T03:14:59;11.47;80.56
25945;SHT31;13742;49.306;8.636;2024-02-16T03:15:59;11.49;80.55
25945;SHT31;13742;49.306;8.636;2024-02-16T03:16:59;11.49;80.85
25945;SHT31;13742;49.306;8.636;2024-02-16T03:17:59;11.52;80.74
25945;SHT31;13742;49.306;8.636;2024-02-16T03:19:00;11.49;80.79
25945;SHT31;13742;49.306;8.636;2024-02-16T03:19:59;11.47;80.63
25945;SHT31;13742;49.306;8.636;2024-02-16T03:20:59;11.47;80.81
25945;SHT31;13742;49.306;8.636;2024-02-16T03:21:59;11.49;80.81
25945;SHT31;13742;49.306;8.636;2024-02-16T03:22:59;11.46;80.59
25945;SHT31;13742;49.306;8.636;2024-02-16T03:23:59;11.47;80.58
25945;SHT31;13742;49.306;8.636;2024-02-16T03:24:59;11.47;80.65
25945;SHT31;13742;49.306;8.636;2024-02-16T03:25:59;11.46;80.67
25945;SHT31;13742;49.306;8.636;2024-02-16T03:26:59;11.47;80.56
25945;SHT31;13742;49.306;8.636;2024-02-16T03:27:59;11.43;80.58
25945;SHT31;13742;49.306;8.636;2024-02-16T03:28:59;11.43;80.62
25945;SHT31;13742;49.306;8.636;2024-02-16T03:29:59;11.45;80.65
25945;SHT31;13742;49.306;8.636;2024-02-16T03:30:59;11.42;80.83
25945;SHT31;13742;49.306;8.636;2024-02-16T03:31:59;11.43;80.93
25945;SHT31;13742;49.306;8.636;2024-02-16T03:32:59;11.39;80.85
25945;SHT31;13742;49.306;8.636;2024-02-16T03:33:59;11.40;80.74
25945;SHT31;13742;49.306;8.636;2024-02-16T03:34:59;11.39;80.87
25945;SHT31;13742;49.306;8.636;2024-02-16T03:36:00;11.36;80.78
25945;SHT31;13742;49.306;8.636;2024-02-16T03:36:59;11.38;80.87
25945;SHT31;13742;49.306;8.636;2024-02-16T03:37:59;11.39;80.99
25945;SHT31;13742;49.306;8.636;2024-02-16T03:38:59;11.35;80.88
25945;SHT31;13742;49.306;8.636;2024-02-16T03:39:59;11.36;80.89
25945;SHT31;13742;49.306;8.636;2024-02-16T03:40:59;11.36;80.87
25945;SHT31;13742;49.306;8.636;2024-02-16T03:41:59;11.32;80.87
25945;SHT31;13742;49.306;8.636;2024-02-16T03:42:59;11.32;80.91
25945;SHT31;13742;49.306;8.636;2024-02-16T03:43:59;11.30;80.90
25945;SHT31;13742;49.306;8.636;2024-02-16T03:44:59;11.30;81.02
25945;SHT31;13742;49.306;8.636;2024-02-16T03:45:59;11.30;80.94
25945;SHT31;13742;49.306;8.636;2024-02-16T03:46:59;11.30;81.08
25945;SHT31;13742;49.306;8.636;2024-02-16T03:47:59;11.29;81.02
25945;SHT31;13742;49.306;8.636;2024-02-16T03:48:59;11.30;81.08
25945;SHT31;13742;49.306;8.636;2024-02-16T03:49:59;11.30;80.90
25945;SHT31;13742;49.306;8.636;2024-02-16T03:50:59;11.30;80.83
25945;SHT31;13742;49.306;8.636;2024-02-16T03:51:59;11.30;80.85
25945;SHT31;13742;49.306;8.636;2024-02-16T03:52:59;11.29;80.76
25945;SHT31;13742;49.306;8.636;2024-02-16T03:53:59;11.27;81.00
25945;SHT31;13742;49.306;8.636;2024-02-16T03:54:59;11.29;81.08
25945;SHT31;13742;49.306;8.636;2024-02-16T03:55:59;11.27;81.09
25945;SHT31;13742;49.306;8.636;2024-02-16T03:56:59;11.27;81.08
25945;SHT31;13742;49.306;8.636;2024-02-16T03:57:59;11.26;80.98
25945;SHT31;13742;49.306;8.636;2024-02-16T03:58:59;11.26;81.02
25945;SHT31;13742;49.306;8.636;2024-02-16T03:59:59;11.27;81.04
25945;SHT31;13742;49.306;8.636;2024-02-16T04:00:59;11.26;81.07
25945;SHT31;13742;49.306;8.636;2024-02-16T04:01:59;11.23;81.30
25945;SHT31;13742;49.306;8.636;2024-02-16T04:02:59;11.25;81.24
25945;SHT31;13742;49.306;8.636;2024-02-16T04:03:59;11.25;81.30
25945;SHT31;13742;49.306;8.636;2024-02-16T04:04:59;11.25;81.32
25945;SHT31;13742;49.306;8.636;2024-02-16T04:05:59;11.25;81.27
25945;SHT31;13742;49.306;8.636;2024-02-16T04:06:59;11.26;81.35
25945;SHT31;13742;49.306;8.636;2024-02-16T04:08:04;11.25;81.31
25945;SHT31;13742;49.306;8.636;2024-02-16T04:08:59;11.23;81.25
25945;SHT31;13742;49.306;8.636;2024-02-16T04:10:00;11.25;81.43
25945;SHT31;13742;49.306;8.636;2024-02-16T04:10:59;11.23;81.22
25945;SHT31;13742;49.306;8.636;2024-02-16T04:11:59;11.21;81.23
25945;SHT31;13742;49.306;8.636;2024-02-16T04:12:59;11.22;81.24
25945;SHT31;13742;49.306;8.636;2024-02-16T04:13:59;11.22;81.26
25945;SHT31;13742;49.306;8.636;2024-02-16T04:14:59;11.22;81.27
25945;SHT31;13742;49.306;8.636;2024-02-16T04:15:59;11.21;81.22
25945;SHT31;13742;49.306;8.636;2024-02-16T04:16:59;11.21;81.15
25945;SHT31;13742;49.306;8.636;2024-02-16T04:17:59;11.18;81.19
25945;SHT31;13742;49.306;8.636;2024-02-16T04:18:59;11.18;81.18
25945;SHT31;13742;49.306;8.636;2024-02-16T04:19:59;11.19;81.12
25945;SHT31;13742;49.306;8.636;2024-02-16T04:20:59;11.18;81.00
25945;SHT31;13742;49.306;8.636;2024-02-16T04:21:59;11.18;81.09
25945;SHT31;13742;49.306;8.636;2024-02-16T04:23:00;11.15;81.20
25945;SHT31;13742;49.306;8.636;2024-02-16T04:23:59;11.15;81.33
25945;SHT31;13742;49.306;8.636;2024-02-16T04:24:59;11.12;81.33
25945;SHT31;13742;49.306;8.636;2024-02-16T04:25:59;11.13;81.50
25945;SHT31;13742;49.306;8.636;2024-02-16T04:26:59;11.11;81.35
25945;SHT31;13742;49.306;8.636;2024-02-16T04:27:59;11.12;81.42
25945;SHT31;13742;49.306;8.636;2024-02-16T04:28:59;11.08;81.52
25945;SHT31;13742;49.306;8.636;2024-02-16T04:29:59;11.09;81.66
25945;SHT31;13742;49.306;8.636;2024-02-16T04:30:59;11.08;81.61
25945;SHT31;13742;49.306;8.636;2024-02-16T04:31:59;11.09;81.45
25945;SHT31;13742;49.306;8.636;2024-02-16T04:32:59;11.08;81.55
25945;SHT31;13742;49.306;8.636;2024-02-16T04:33:59;11.05;81.63
25945;SHT31;13742;49.306;8.636;2024-02-16T04:34:59;11.05;81.60
25945;SHT31;13742;49.306;8.636;2024-02-16T04:35:59;11.03;81.66
25945;SHT31;13742;49.306;8.636;2024-02-16T04:36:59;10.99;81.85
25945;SHT31;13742;49.306;8.636;2024-02-16T04:37:59;10.98;81.61
25945;SHT31;13742;49.306;8.636;2024-02-16T04:38:59;10.99;81.75
25945;SHT31;13742;49.306;8.636;2024-02-16T04:39:59;10.98;81.78
25945;SHT31;13742;49.306;8.636;2024-02-16T04:40:59;10.96;81.87
25945;SHT31;13742;49.306;8.636;2024-02-16T04:41:59;10.95;81.94
25945;SHT31;13742;49.306;8.636;2024-02-16T04:42:59;10.96;81.86
25945;SHT31;13742;49.306;8.636;2024-02-16T04:43:59;10.98;81.99
25945;SHT31;13742;49.306;8.636;2024-02-16T04:44:59;10.95;81.91
25945;SHT31;13742;49.306;8.636;2024-02-16T04:46:00;10.92;81.73
25945;SHT31;13742;49.306;8.636;2024-02-16T04:46:59;10.92;81.90
25945;SHT31;13742;49.306;8.636;2024-02-16T04:48:03;10.90;82.20
25945;SHT31;13742;49.306;8.636;2024-02-16T04:48:59;10.92;81.99
25945;SHT31;13742;49.306;8.636;2024-02-16T04:49:59;10.90;82.14
25945;SHT31;13742;49.306;8.636;2024-02-16T04:50:59;10.90;82.07
25945;SHT31;13742;49.306;8.636;2024-02-16T04:51:59;10.87;82.01
25945;SHT31;13742;49.306;8.636;2024-02-16T04:52:59;10.87;82.13
25945;SHT31;13742;49.306;8.636;2024-02-16T04:53:59;10.85;82.07
25945;SHT31;13742;49.306;8.636;2024-02-16T04:54:59;10.85;82.16
25945;SHT31;13742;49.306;8.636;2024-02-16T04:55:58;10.82;82.21
25945;SHT31;13742;49.306;8.636;2024-02-16T04:56:59;10.80;82.17
25945;SHT31;13742;49.306;8.636;2024-02-16T04:57:59;10.82;82.09
25945;SHT31;13742;49.306;8.636;2024-02-16T04:58:59;10.80;82.29
25945;SHT31;13742;49.306;8.636;2024-02-16T04:59:59;10.80;82.41
25945;SHT31;13742;49.306;8.636;2024-02-16T05:00:59;10.78;82.57
25945;SHT31;13742;49.306;8.636;2024-02-16T05:01:59;10.77;82.49
25945;SHT31;13742;49.306;8.636;2024-02-16T05:02:58;10.78;82.65
25945;SHT31;13742;49.306;8.636;2024-02-16T05:04:00;10.75;82.53
25945;SHT31;13742;49.306;8.636;2024-02-16T05:04:59;10.74;82.74
25945;SHT31;13742;49.306;8.636;2024-02-16T05:06:01;10.75;82.43
25945;SHT31;13742;49.306;8.636;2024-02-16T05:06:59;10.74;82.47
25945;SHT31;13742;49.306;8.636;2024-02-16T05:08:01;10.74;82.53
25945;SHT31;13742;49.306;8.636;2024-02-16T05:08:58;10.74;82.57
25945;SHT31;13742;49.306;8.636;2024-02-16T05:09:59;10.71;82.60
25945;SHT31;13742;49.306;8.636;2024-02-16T05:11:00;10.72;82.59
25945;SHT31;13742;49.306;8.636;2024-02-16T05:11:59;10.72;82.62
25945;SHT31;13742;49.306;8.636;2024-02-16T05:12:59;10.71;82.50
25945;SHT31;13742;49.306;8.636;2024-02-16T05:13:58;10.72;82.66
25945;SHT31;13742;49.306;8.636;2024-02-16T05:14:58;10.72;82.48
25945;SHT31;13742;49.306;8.636;2024-02-16T05:15:59;10.74;82.61
25945;SHT31;13742;49.306;8.636;2024-02-16T05:16:58;10.72;82.54
25945;SHT31;13742;49.306;8.636;2024-02-16T05:17:58;10.72;82.45
25945;SHT31;13742;49.306;8.636;2024-02-16T05:18:58;10.70;82.60
25945;SHT31;13742;49.306;8.636;2024-02-16T05:19:58;10.71;82.56
25945;SHT31;13742;49.306;8.636;2024-02-16T05:20:58;10.71;82.48
25945;SHT31;13742;49.306;8.636;2024-02-16T05:21:59;10.68;82.52
25945;SHT31;13742;49.306;8.636;2024-02-16T05:22:58;10.67;82.23
25945;SHT31;13742;49.306;8.636;2024-02-16T05:23:58;10.67;82.52
25945;SHT31;13742;49.306;8.636;2024-02-16T05:24:58;10.67;82.75
25945;SHT31;13742;49.306;8.636;2024-02-16T05:25:59;10.67;82.41
25945;SHT31;13742;49.306;8.636;2024-02-16T05:26:59;10.65;82.34
25945;SHT31;13742;49.306;8.636;2024-02-16T05:27:59;10.65;82.48
25945;SHT31;13742;49.306;8.636;2024-02-16T05:28:59;10.67;82.63
25945;SHT31;13742;49.306;8.636;2024-02-16T05:29:59;10.67;82.67
25945;SHT31;13742;49.306;8.636;2024-02-16T05:31:12;10.64;82.73
25945;SHT31;13742;49.306;8.636;2024-02-16T05:31:58;10.65;82.82
25945;SHT31;13742;49.306;8.636;2024-02-16T05:32:59;10.65;82.79
25945;SHT31;13742;49.306;8.636;2024-02-16T05:33:58;10.63;82.72
25945;SHT31;13742;49.306;8.636;2024-02-16T05:34:58;10.64;82.53
25945;SHT31;13742;49.306;8.636;2024-02-16T05:35:59;10.64;82.64
25945;SHT31;13742;49.306;8.636;2024-02-16T05:36:59;10.64;82.56
25945;SHT31;13742;49.306;8.636;2024-02-16T05:38:00;10.60;82.57
25945;SHT31;13742;49.306;8.636;2024-02-16T05:39:09;10.59;82.63
25945;SHT31;13742;49.306;8.636;2024-02-16T05:40:09;10.59;82.72
25945;SHT31;13742;49.306;8.636;2024-02-16T05:40:59;10.60;83.00
25945;SHT31;13742;49.306;8.636;2024-02-16T05:41:58;10.57;82.68
25945;SHT31;13742;49.306;8.636;2024-02-16T05:42:59;10.59;83.15
25945;SHT31;13742;49.306;8.636;2024-02-16T05:43:59;10.57;83.06
25945;SHT31;13742;49.306;8.636;2024-02-16T05:44:58;10.59;83.04
25945;SHT31;13742;49.306;8.636;2024-02-16T05:45:59;10.57;82.98
25945;SHT31;13742;49.306;8.636;2024-02-16T05:46:58;10.59;83.06
25945;SHT31;13742;49.306;8.636;2024-02-16T05:47:59;10.56;82.84
25945;SHT31;13742;49.306;8.636;2024-02-16T05:48:59;10.54;83.33
25945;SHT31;13742;49.306;8.636;2024-02-16T05:49:58;10.54;83.23
25945;SHT31;13742;49.306;8.636;2024-02-16T05:51:00;10.53;83.28
25945;SHT31;13742;49.306;8.636;2024-02-16T05:52:13;10.56;83.51
25945;SHT31;13742;49.306;8.636;2024-02-16T05:52:59;10.54;83.36
25945;SHT31;13742;49.306;8.636;2024-02-16T05:53:58;10.53;83.40
25945;SHT31;13742;49.306;8.636;2024-02-16T05:54:58;10.54;83.52
25945;SHT31;13742;49.306;8.636;2024-02-16T05:55:59;10.54;83.42
25945;SHT31;13742;49.306;8.636;2024-02-16T05:56:58;10.53;83.36
25945;SHT31;13742;49.306;8.636;2024-02-16T05:57:58;10.48;83.48
25945;SHT31;13742;49.306;8.636;2024-02-16T05:58:59;10.48;83.35
25945;SHT31;13742;49.306;8.636;2024-02-16T05:59:58;10.47;83.67
25945;SHT31;13742;49.306;8.636;2024-02-16T06:00:59;10.47;83.61
25945;SHT31;13742;49.306;8.636;2024-02-16T06:01:58;10.50;83.72
25945;SHT31;13742;49.306;8.636;2024-02-16T06:02:59;10.47;83.65
25945;SHT31;13742;49.306;8.636;2024-02-16T06:03:58;10.48;83.68
25945;SHT31;13742;49.306;8.636;2024-02-16T06:04:59;10.47;83.64
25945;SHT31;13742;49.306;8.636;2024-02-16T06:05:59;10.48;83.69
25945;SHT31;13742;49.306;8.636;2024-02-16T06:06:59;10.48;83.51
25945;SHT31;13742;49.306;8.636;2024-02-16T06:07:59;10.48;83.61
25945;SHT31;13742;49.306;8.636;2024-02-16T06:08:59;10.47;83.76
25945;SHT31;13742;49.306;8.636;2024-02-16T06:09:58;10.47;83.70
25945;SHT31;13742;49.306;8.636;2024-02-16T06:10:58;10.47;83.66
25945;SHT31;13742;49.306;8.636;2024-02-16T06:12:03;10.47;83.71
25945;SHT31;13742;49.306;8.636;2024-02-16T06:12:59;10.44;83.63
25945;SHT31;13742;49.306;8.636;2024-02-16T06:13:58;10.44;83.74
25945;SHT31;13742;49.306;8.636;2024-02-16T06:14:59;10.45;83.72
25945;SHT31;13742;49.306;8.636;2024-02-16T06:15:58;10.41;83.62
25945;SHT31;13742;49.306;8.636;2024-02-16T06:18:01;10.40;83.77
25945;SHT31;13742;49.306;8.636;2024-02-16T06:18:59;10.41;83.51
25945;SHT31;13742;49.306;8.636;2024-02-16T06:19:58;10.41;83.91